Murdock, Nebraska
Current Conditions -  °F | °C
As of 10:15 AM on Sunday 25 Jan 2015 (Local Time) from KPMV Reporting Station
Overcast Overcast  
Wind Chill: 25°   Ceiling: 1100
Heat Index: 36°   Visibility: 7mi
Dew Point: 32°   Wind: 17mph
Humidity: 87%   Direction: 340°NNW
Pressure: 29.89"   Gusts: 25mph
Location:  40.93°N, 96.28°W
Report Text: KPMV 251615Z AUTO 34015G22KT 7SM OVC011 02/00 A2989 RMK AO2 T00200000
Loading
Personal Weather Stations






























Interactive Weather Map New forecast layout! Learn more

10-Day Weather Forecast

Advertisements
Track Severe Weather on mobile